»·PEaware :: N122AJ KLVK-KBTF

N122AJ :: KLVK-KBTF

FLIGHT INFORMATION

Flight Status: Arrived
Operator: Privately registered:
United States
More flights under this callsign
Pilot: Andrew J. (13363)
Aircraft: BEECH AIRCRAFT SUPER KING AIR COMMUTER
(BE20)
More flights by this aircraft type
Origin: KLVK Livermore Mun
United States
Destination: KBTF Skypark
United States
More flights between these airports :: More routes between these airports
Route: MVA ELY FFU
File this flight plan on PilotEdge
Remarks: Twitch.tv / ajonesieee
Altitude:
(Current/Filed)
25,000ft
Speed:
(Current/Filed)
250kts
Departed: 03-Sep-17 03:59 PM
Arrived: 03-Sep-17 06:22 PM
Distance/Time
Traveled:
497nm/2:23
Distance/Time
To Go:
Arrived

Flight Plot

Page will automatically refresh every two minutes.

Flight plan parsing failed; only flown route is shown


Map Options




Map Legend


Flown Route
Filed Route
Departure Airport
Arrival Airport
Navaid (VOR, NDB)
Fix

Horizontal Profiles

Position Reports

Time Latitude Longitude Heading Altitude Ground
Speed
03-Sep-17 15:51 37.695139 -121.815800 270 392ft 0kts
03-Sep-17 15:52 37.695139 -121.815800 270 392ft 0kts
03-Sep-17 15:53 37.695139 -121.815800 270 392ft 0kts
03-Sep-17 15:54 37.695139 -121.815800 270 392ft 0kts
03-Sep-17 15:55 37.695139 -121.815800 270 392ft 0kts
03-Sep-17 15:56 37.695139 -121.815800 270 392ft 0kts
03-Sep-17 15:57 37.695139 -121.815800 270 392ft 0kts
03-Sep-17 15:58 37.695139 -121.815800 270 392ft 0kts
03-Sep-17 15:59 37.695139 -121.815800 270 392ft 0kts
03-Sep-17 16:00 37.694533 -121.815592 98 393ft 3kts
03-Sep-17 16:01 37.694506 -121.812424 90 396ft 11kts
03-Sep-17 16:02 37.693785 -121.811545 272 397ft 0kts
03-Sep-17 16:03 37.695063 -121.834332 287 873ft 134kts
03-Sep-17 16:04 37.714191 -121.825048 96 3035ft 140kts
03-Sep-17 16:05 37.711173 -121.790132 86 4712ft 143kts
03-Sep-17 16:06 37.713080 -121.763118 78 5926ft 144kts
03-Sep-17 16:07 37.717992 -121.731744 74 7277ft 145kts
03-Sep-17 16:08 37.725599 -121.695162 71 8766ft 147kts
03-Sep-17 16:09 37.736824 -121.647207 71 10564ft 150kts
03-Sep-17 16:10 37.749000 -121.597179 70 12252ft 153kts
03-Sep-17 16:11 37.761473 -121.546098 70 13826ft 154kts
03-Sep-17 16:12 37.774239 -121.494172 70 15279ft 156kts
03-Sep-17 16:13 37.787192 -121.442261 72 16609ft 156kts
03-Sep-17 16:14 37.799164 -121.394327 73 17714ft 158kts
03-Sep-17 16:15 37.811760 -121.342210 75 18804ft 160kts
03-Sep-17 16:16 37.824602 -121.289280 75 19825ft 163kts
03-Sep-17 16:17 37.838008 -121.234129 76 20788ft 165kts
03-Sep-17 16:18 37.849457 -121.186906 76 21539ft 167kts
03-Sep-17 16:19 37.863068 -121.129986 76 22262ft 177kts
03-Sep-17 16:20 37.877491 -121.070192 75 23072ft 180kts
03-Sep-17 16:21 37.892248 -121.009049 75 23814ft 183kts
03-Sep-17 16:22 37.907199 -120.947372 76 24493ft 185kts
03-Sep-17 16:23 37.922240 -120.884895 76 24968ft 186kts
03-Sep-17 16:24 37.937670 -120.819972 76 25043ft 200kts
03-Sep-17 16:25 37.954483 -120.748967 76 25050ft 224kts
03-Sep-17 16:26 37.973392 -120.670180 76 25059ft 241kts
03-Sep-17 16:27 37.992904 -120.587457 76 25057ft 249kts
03-Sep-17 16:28 38.012928 -120.502663 76 25052ft 252kts
03-Sep-17 16:29 38.032527 -120.419454 76 25051ft 254kts
03-Sep-17 16:30 38.051993 -120.336455 76 24974ft 257kts
03-Sep-17 16:31 38.071738 -120.252099 77 24968ft 254kts
03-Sep-17 16:32 38.091622 -120.166982 77 24990ft 252kts
03-Sep-17 16:33 38.109630 -120.089269 77 24985ft 249kts
03-Sep-17 16:34 38.129022 -120.005450 77 24986ft 247kts
03-Sep-17 16:35 38.147741 -119.924231 77 24986ft 245kts
03-Sep-17 16:36 38.166649 -119.841893 77 24987ft 245kts
03-Sep-17 16:37 38.166649 -119.841893 77 24987ft 245kts
03-Sep-17 16:38 38.182459 -119.772846 77 24985ft 244kts
03-Sep-17 16:39 38.201062 -119.690325 76 25009ft 243kts
03-Sep-17 16:40 38.220008 -119.607593 76 25011ft 243kts
03-Sep-17 16:41 38.238831 -119.524853 76 25011ft 243kts
03-Sep-17 16:42 38.257433 -119.442795 76 25008ft 243kts
03-Sep-17 16:43 38.275937 -119.360348 77 25010ft 245kts
03-Sep-17 16:44 38.275937 -119.360348 77 25010ft 245kts
03-Sep-17 16:45 38.275937 -119.360348 77 25010ft 245kts
03-Sep-17 16:46 38.285620 -119.317092 77 25009ft 246kts
03-Sep-17 16:47 38.304272 -119.233705 77 25023ft 245kts
03-Sep-17 16:48 38.322873 -119.150256 77 25028ft 245kts
03-Sep-17 16:49 38.341427 -119.066744 77 25028ft 245kts
03-Sep-17 16:50 38.359886 -118.983284 77 25028ft 245kts
03-Sep-17 16:51 38.378337 -118.899573 77 25028ft 245kts
03-Sep-17 16:52 38.396669 -118.816084 77 25029ft 245kts
03-Sep-17 16:53 38.414926 -118.732443 77 25039ft 245kts
03-Sep-17 16:54 38.433177 -118.648368 76 25044ft 246kts
03-Sep-17 16:55 38.451525 -118.564259 76 25043ft 247kts
03-Sep-17 16:56 38.469847 -118.479647 76 25044ft 248kts
03-Sep-17 16:57 38.488136 -118.394800 76 25044ft 248kts
03-Sep-17 16:58 38.505279 -118.314950 76 25044ft 248kts
03-Sep-17 16:59 38.523332 -118.230286 77 25053ft 248kts
03-Sep-17 17:00 38.541324 -118.145759 76 25053ft 247kts
03-Sep-17 17:01 38.559286 -118.061352 76 25053ft 246kts
03-Sep-17 17:02 38.578953 -117.977399 74 25053ft 247kts
03-Sep-17 17:03 38.599488 -117.893702 74 25053ft 247kts
03-Sep-17 17:04 38.619914 -117.810115 74 25053ft 247kts
03-Sep-17 17:05 38.640236 -117.726481 74 25059ft 246kts
03-Sep-17 17:06 38.660446 -117.643224 74 25056ft 245kts
03-Sep-17 17:07 38.680634 -117.559834 74 25056ft 245kts
03-Sep-17 17:08 38.700669 -117.476684 74 25056ft 244kts
03-Sep-17 17:09 38.720591 -117.393722 74 25056ft 244kts
03-Sep-17 17:10 38.739454 -117.314881 74 25058ft 244kts
03-Sep-17 17:11 38.759286 -117.232117 75 25053ft 244kts
03-Sep-17 17:12 38.778958 -117.148671 74 25053ft 245kts
03-Sep-17 17:13 38.798756 -117.065237 74 25053ft 245kts
03-Sep-17 17:14 38.818517 -116.981551 74 25053ft 245kts
03-Sep-17 17:15 38.838307 -116.897382 74 25053ft 246kts
03-Sep-17 17:16 38.857937 -116.813582 74 25054ft 246kts
03-Sep-17 17:17 38.877514 -116.729714 74 25053ft 246kts
03-Sep-17 17:18 38.897113 -116.645269 74 25052ft 247kts
03-Sep-17 17:19 38.916752 -116.560598 74 25053ft 248kts
03-Sep-17 17:20 38.936354 -116.475728 74 25052ft 248kts
03-Sep-17 17:21 38.955999 -116.390329 74 25052ft 249kts
03-Sep-17 17:22 38.974652 -116.308945 75 25052ft 249kts
03-Sep-17 17:23 38.994180 -116.223833 75 25050ft 249kts
03-Sep-17 17:24 39.013569 -116.138677 75 25051ft 249kts
03-Sep-17 17:25 39.032909 -116.052978 75 25051ft 249kts
03-Sep-17 17:26 39.052164 -115.967579 75 25051ft 249kts
03-Sep-17 17:27 39.071484 -115.881657 75 25051ft 249kts
03-Sep-17 17:28 39.090664 -115.796050 75 25051ft 249kts
03-Sep-17 17:29 39.108742 -115.714991 75 25046ft 249kts
03-Sep-17 17:30 39.127732 -115.629687 75 25047ft 248kts
03-Sep-17 17:31 39.146449 -115.545223 75 25047ft 248kts
03-Sep-17 17:32 39.163953 -115.465926 75 25047ft 248kts
03-Sep-17 17:33 39.182152 -115.383132 75 24639ft 262kts
03-Sep-17 17:34 39.199721 -115.302998 76 24066ft 271kts
03-Sep-17 17:35 39.217713 -115.220954 76 24042ft 259kts
03-Sep-17 17:36 39.235814 -115.137656 77 24045ft 254kts
03-Sep-17 17:37 39.250707 -115.068783 77 24047ft 251kts
03-Sep-17 17:38 39.267108 -114.992655 77 24043ft 250kts
03-Sep-17 17:39 39.286932 -114.900604 77 24043ft 250kts
03-Sep-17 17:40 39.307200 -114.822426 67 24045ft 251kts
03-Sep-17 17:41 39.329897 -114.758254 67 24044ft 251kts
03-Sep-17 17:42 39.358473 -114.677154 68 24047ft 251kts
03-Sep-17 17:43 39.389537 -114.588507 68 24047ft 251kts
03-Sep-17 17:44 39.418259 -114.506337 68 24047ft 251kts
03-Sep-17 17:45 39.442163 -114.437794 68 24047ft 251kts
03-Sep-17 17:46 39.470781 -114.355520 68 24047ft 251kts
03-Sep-17 17:47 39.501308 -114.267497 68 24048ft 251kts
03-Sep-17 17:48 39.524949 -114.198962 68 24051ft 252kts
03-Sep-17 17:49 39.553632 -114.115886 68 24052ft 253kts
03-Sep-17 17:50 39.582249 -114.032674 68 24052ft 253kts
03-Sep-17 17:51 39.610812 -113.949371 68 24052ft 253kts
03-Sep-17 17:52 39.639136 -113.866548 68 24052ft 254kts
03-Sep-17 17:53 39.667536 -113.783321 68 24052ft 254kts
03-Sep-17 17:54 39.695522 -113.700923 68 24055ft 254kts
03-Sep-17 17:55 39.724037 -113.616893 68 24055ft 254kts
03-Sep-17 17:56 39.752481 -113.532769 68 24055ft 255kts
03-Sep-17 17:57 39.780842 -113.448516 68 24051ft 254kts
03-Sep-17 17:58 39.809153 -113.364340 68 24051ft 254kts
03-Sep-17 17:59 39.824631 -113.318181 68 24051ft 254kts
03-Sep-17 18:00 39.852823 -113.233895 68 24053ft 254kts
03-Sep-17 18:01 39.880924 -113.149517 68 23838ft 263kts
03-Sep-17 18:02 39.911392 -113.057744 68 22627ft 284kts
03-Sep-17 18:03 39.942918 -112.962558 68 21464ft 289kts
03-Sep-17 18:04 39.974803 -112.866033 68 20285ft 291kts
03-Sep-17 18:05 40.006543 -112.769571 67 19103ft 290kts
03-Sep-17 18:06 40.037970 -112.673822 67 18320ft 288kts
03-Sep-17 18:07 40.068798 -112.579335 67 17735ft 287kts
03-Sep-17 18:08 40.099466 -112.485031 67 17155ft 287kts
03-Sep-17 18:09 40.127131 -112.399964 67 17051ft 275kts
03-Sep-17 18:10 40.153796 -112.317758 67 17048ft 269kts
03-Sep-17 18:11 40.183010 -112.226866 67 16111ft 290kts
03-Sep-17 18:12 40.213085 -112.133259 66 15158ft 297kts
03-Sep-17 18:13 40.242833 -112.040893 67 14242ft 299kts
03-Sep-17 18:14 40.275800 -111.953499 38 13316ft 298kts
03-Sep-17 18:15 40.348744 -111.956905 306 12348ft 276kts
03-Sep-17 18:16 40.384620 -112.032817 354 11540ft 270kts
03-Sep-17 18:17 40.456716 -112.016543 10 10792ft 269kts
03-Sep-17 18:18 40.517073 -111.964536 40 10007ft 269kts
03-Sep-17 18:19 40.571039 -111.902600 40 9415ft 264kts
03-Sep-17 18:20 40.634086 -111.883368 351 8843ft 260kts
03-Sep-17 18:21 40.703957 -111.896507 351 8263ft 260kts
03-Sep-17 18:22 40.768453 -111.909549 348 7241ft 204kts
03-Sep-17 18:23 40.785761 -111.914539 342 6525ft 198kts
03-Sep-17 18:24 40.828513 -111.925830 351 5225ft 99kts
03-Sep-17 18:25 40.854976 -111.927413 359 4464ft 101kts
03-Sep-17 18:26 40.867258 -111.927802 268 4236ft 1kts
03-Sep-17 18:27 40.867195 -111.928442 255 4236ft 0kts
03-Sep-17 18:28 40.867194 -111.928442 255 4236ft 0kts

Navigation Log

Ident Type
Flight plan parsing failed, navigation log unavailable